AAR8982 RKPC-RKSS
Flight info
| Callsign | AAR8982 |
|---|---|
| Flight time | 0h 46m |
| Altitude | 23000 |
| Route | KAMIT Y722 OLMEN |
| Aircraft | A21N/M-SDE2E3FGHIRWXY/LB1 |
Departure
| Time | 2025-09-09 12:40 |
|---|---|
| Airport | Jeju International Airport (RKPC) |
Arrival
| Time | 2025-09-09 13:26 |
|---|---|
| Airport | Gimpo International Airport (RKSS) |
| Time | Latitude | Longitude | Altitude | Speed | Heading |
|---|---|---|---|---|---|
| 2025-09-09 12:19 | 33.50616 | 126.48629 | 140 ft | 0 kts | 328° |
| 2025-09-09 12:28 | 33.50588 | 126.48649 | 140 ft | 3 kts | 328° |
| 2025-09-09 12:29 | 33.50564 | 126.48680 | 140 ft | 3 kts | 277° |
| 2025-09-09 12:29 | 33.50566 | 126.48701 | 140 ft | 3 kts | 246° |
| 2025-09-09 12:30 | 33.50576 | 126.48724 | 140 ft | 1 kts | 238° |
| 2025-09-09 12:32 | 33.50536 | 126.48647 | 140 ft | 8 kts | 238° |
| 2025-09-09 12:33 | 33.50515 | 126.48577 | 140 ft | 5 kts | 310° |
| 2025-09-09 12:33 | 33.50555 | 126.48557 | 140 ft | 8 kts | 333° |
| 2025-09-09 12:34 | 33.50605 | 126.48424 | 140 ft | 14 kts | 237° |
| 2025-09-09 12:34 | 33.50486 | 126.48194 | 140 ft | 19 kts | 238° |
| 2025-09-09 12:35 | 33.50333 | 126.47897 | 140 ft | 24 kts | 238° |
| 2025-09-09 12:35 | 33.50094 | 126.47432 | 140 ft | 21 kts | 238° |
| 2025-09-09 12:36 | 33.49928 | 126.47108 | 140 ft | 17 kts | 238° |
| 2025-09-09 12:36 | 33.49891 | 126.47035 | 140 ft | 9 kts | 239° |
| 2025-09-09 12:37 | 33.49906 | 126.46927 | 140 ft | 2 kts | 329° |
| 2025-09-09 12:37 | 33.49908 | 126.46926 | 140 ft | 0 kts | 329° |
| 2025-09-09 12:38 | 33.49975 | 126.46896 | 139 ft | 9 kts | 2° |
| 2025-09-09 12:39 | 33.50045 | 126.46958 | 139 ft | 0 kts | 59° |
| 2025-09-09 12:40 | 33.51762 | 126.50285 | 1320 ft | 178 kts | 53° |
| 2025-09-09 12:40 | 33.53557 | 126.52402 | 3199 ft | 182 kts | 44° |
| 2025-09-09 12:41 | 33.55739 | 126.54844 | 4106 ft | 249 kts | 43° |
| 2025-09-09 12:41 | 33.57110 | 126.56320 | 4765 ft | 275 kts | 34° |
| 2025-09-09 12:42 | 33.60818 | 126.57789 | 6741 ft | 288 kts | 11° |
| 2025-09-09 12:42 | 33.64733 | 126.58874 | 8210 ft | 296 kts | 11° |
| 2025-09-09 12:43 | 33.68785 | 126.60060 | 9604 ft | 305 kts | 12° |
| 2025-09-09 12:43 | 33.75357 | 126.62022 | 10758 ft | 350 kts | 12° |
| 2025-09-09 12:44 | 33.77781 | 126.62750 | 10992 ft | 367 kts | 12° |
| 2025-09-09 12:44 | 33.82907 | 126.64294 | 11648 ft | 391 kts | 12° |
| 2025-09-09 12:45 | 33.88181 | 126.65887 | 13076 ft | 388 kts | 12° |
| 2025-09-09 12:45 | 33.93387 | 126.67456 | 14213 ft | 390 kts | 11° |
| 2025-09-09 12:46 | 33.98717 | 126.69065 | 14971 ft | 399 kts | 11° |
| 2025-09-09 12:46 | 34.04164 | 126.70715 | 15770 ft | 406 kts | 11° |
| 2025-09-09 12:47 | 34.09697 | 126.72391 | 16590 ft | 412 kts | 11° |
| 2025-09-09 12:47 | 34.18100 | 126.74942 | 17831 ft | 421 kts | 10° |
| 2025-09-09 12:48 | 34.23830 | 126.76682 | 18593 ft | 427 kts | 10° |
| 2025-09-09 12:48 | 34.29712 | 126.77644 | 19269 ft | 428 kts | 0° |
| 2025-09-09 12:49 | 34.32698 | 126.77949 | 19618 ft | 431 kts | 1° |
| 2025-09-09 12:49 | 34.38692 | 126.78576 | 20305 ft | 438 kts | 1° |
| 2025-09-09 12:50 | 34.44804 | 126.79223 | 21004 ft | 444 kts | 1° |
| 2025-09-09 12:50 | 34.51019 | 126.79885 | 21718 ft | 450 kts | 1° |
| 2025-09-09 12:51 | 34.57277 | 126.80553 | 22445 ft | 457 kts | 1° |
| 2025-09-09 12:51 | 34.66799 | 126.81574 | 22985 ft | 446 kts | 1° |
| 2025-09-09 12:52 | 34.72889 | 126.82225 | 22967 ft | 440 kts | 1° |
| 2025-09-09 12:52 | 34.75938 | 126.82551 | 22964 ft | 440 kts | 1° |
| 2025-09-09 12:53 | 34.81014 | 126.83095 | 22966 ft | 440 kts | 1° |
| 2025-09-09 12:53 | 34.87120 | 126.83753 | 22965 ft | 439 kts | 1° |
| 2025-09-09 12:54 | 34.94207 | 126.84517 | 22967 ft | 439 kts | 1° |
| 2025-09-09 12:54 | 35.00307 | 126.85177 | 22966 ft | 439 kts | 1° |
| 2025-09-09 12:55 | 35.05380 | 126.85726 | 22976 ft | 439 kts | 0° |
| 2025-09-09 12:55 | 35.09420 | 126.86163 | 22966 ft | 439 kts | 0° |
| 2025-09-09 12:56 | 35.17503 | 126.87039 | 22971 ft | 437 kts | 360° |
| 2025-09-09 12:56 | 35.26600 | 126.88026 | 22972 ft | 437 kts | 360° |
| 2025-09-09 12:57 | 35.29632 | 126.88356 | 22972 ft | 437 kts | 360° |
| 2025-09-09 12:57 | 35.35691 | 126.89015 | 22956 ft | 437 kts | 359° |
| 2025-09-09 12:58 | 35.41717 | 126.89672 | 22974 ft | 438 kts | 359° |
| 2025-09-09 12:58 | 35.47787 | 126.90335 | 22973 ft | 437 kts | 359° |
| 2025-09-09 12:59 | 35.53858 | 126.90999 | 22972 ft | 437 kts | 359° |
| 2025-09-09 12:59 | 35.62959 | 126.91994 | 22974 ft | 437 kts | 359° |
| 2025-09-09 13:00 | 35.68995 | 126.92656 | 22972 ft | 438 kts | 359° |
| 2025-09-09 13:00 | 35.72036 | 126.92989 | 22971 ft | 438 kts | 359° |
| 2025-09-09 13:01 | 35.78081 | 126.93654 | 22978 ft | 438 kts | 359° |
| 2025-09-09 13:01 | 35.84158 | 126.94324 | 22976 ft | 438 kts | 359° |
| 2025-09-09 13:02 | 35.90254 | 126.94996 | 22975 ft | 439 kts | 359° |
| 2025-09-09 13:02 | 35.96341 | 126.95669 | 22978 ft | 439 kts | 359° |
| 2025-09-09 13:03 | 36.02411 | 126.96340 | 22979 ft | 440 kts | 359° |
| 2025-09-09 13:03 | 36.11585 | 126.97357 | 22972 ft | 440 kts | 359° |
| 2025-09-09 13:04 | 36.14644 | 126.97696 | 22967 ft | 440 kts | 359° |
| 2025-09-09 13:04 | 36.20747 | 126.98376 | 22975 ft | 440 kts | 359° |
| 2025-09-09 13:04 | 36.23759 | 126.98711 | 22983 ft | 440 kts | 359° |
| 2025-09-09 13:06 | 36.41987 | 127.00277 | 22023 ft | 433 kts | 352° |
| 2025-09-09 13:06 | 36.44948 | 127.00169 | 21501 ft | 430 kts | 352° |
| 2025-09-09 13:07 | 36.50912 | 126.99938 | 20383 ft | 426 kts | 353° |
| 2025-09-09 13:07 | 36.56833 | 126.99716 | 19274 ft | 424 kts | 354° |
| 2025-09-09 13:08 | 36.62647 | 126.99507 | 18123 ft | 411 kts | 354° |
| 2025-09-09 13:08 | 36.71023 | 126.99319 | 16499 ft | 402 kts | 2° |
| 2025-09-09 13:09 | 36.76187 | 127.01832 | 15624 ft | 401 kts | 37° |
| 2025-09-09 13:09 | 36.80259 | 127.06501 | 15119 ft | 395 kts | 42° |
| 2025-09-09 13:10 | 36.82250 | 127.08845 | 14886 ft | 392 kts | 42° |
| 2025-09-09 13:10 | 36.86208 | 127.13433 | 14425 ft | 387 kts | 41° |
| 2025-09-09 13:11 | 36.90147 | 127.17973 | 13846 ft | 379 kts | 42° |
| 2025-09-09 13:11 | 36.93993 | 127.22407 | 12837 ft | 372 kts | 42° |
| 2025-09-09 13:12 | 36.97737 | 127.26729 | 11908 ft | 364 kts | 43° |
| 2025-09-09 13:12 | 37.03175 | 127.33042 | 10931 ft | 340 kts | 43° |
| 2025-09-09 13:13 | 37.06500 | 127.36909 | 10646 ft | 316 kts | 43° |
| 2025-09-09 13:13 | 37.09611 | 127.40531 | 10403 ft | 293 kts | 43° |
| 2025-09-09 13:14 | 37.11078 | 127.42241 | 10269 ft | 283 kts | 43° |
| 2025-09-09 13:14 | 37.14281 | 127.44847 | 9645 ft | 278 kts | 14° |
| 2025-09-09 13:15 | 37.17998 | 127.44068 | 8912 ft | 279 kts | 327° |
| 2025-09-09 13:15 | 37.20135 | 127.40138 | 8171 ft | 282 kts | 287° |
| 2025-09-09 13:16 | 37.21103 | 127.35365 | 7971 ft | 282 kts | 286° |
| 2025-09-09 13:16 | 37.22658 | 127.28322 | 7976 ft | 270 kts | 288° |
| 2025-09-09 13:17 | 37.23669 | 127.23921 | 7975 ft | 259 kts | 287° |
| 2025-09-09 13:17 | 37.24172 | 127.21738 | 7981 ft | 259 kts | 287° |
| 2025-09-09 13:18 | 37.26192 | 127.15620 | 7765 ft | 251 kts | 316° |
| 2025-09-09 13:18 | 37.27439 | 127.14090 | 7428 ft | 251 kts | 319° |
| 2025-09-09 13:19 | 37.29967 | 127.11058 | 6796 ft | 250 kts | 319° |
| 2025-09-09 13:19 | 37.31213 | 127.09534 | 6499 ft | 249 kts | 319° |
| 2025-09-09 13:20 | 37.34882 | 127.04998 | 5547 ft | 246 kts | 318° |
| 2025-09-09 13:20 | 37.38543 | 127.00508 | 4642 ft | 243 kts | 317° |
| 2025-09-09 13:21 | 37.40922 | 126.97523 | 4035 ft | 240 kts | 317° |
| 2025-09-09 13:21 | 37.43275 | 126.94573 | 3180 ft | 239 kts | 316° |
| 2025-09-09 13:22 | 37.45547 | 126.91723 | 2533 ft | 212 kts | 316° |
| 2025-09-09 13:22 | 37.46537 | 126.90480 | 2298 ft | 190 kts | 315° |
| 2025-09-09 13:23 | 37.48055 | 126.88575 | 1864 ft | 164 kts | 315° |
| 2025-09-09 13:23 | 37.49548 | 126.86700 | 1487 ft | 148 kts | 315° |
| 2025-09-09 13:24 | 37.50961 | 126.84925 | 1108 ft | 143 kts | 315° |
| 2025-09-09 13:24 | 37.53042 | 126.82309 | 569 ft | 139 kts | 315° |
| 2025-09-09 13:25 | 37.54405 | 126.80595 | 203 ft | 138 kts | 315° |
| 2025-09-09 13:25 | 37.55076 | 126.79760 | 66 ft | 134 kts | 315° |
| 2025-09-09 13:26 | 37.55978 | 126.78626 | 64 ft | 46 kts | 315° |
| 2025-09-09 13:26 | 37.56332 | 126.78350 | 66 ft | 25 kts | 345° |
| 2025-09-09 13:27 | 37.56598 | 126.78494 | 70 ft | 18 kts | 45° |
| 2025-09-09 13:27 | 37.56575 | 126.78744 | 65 ft | 19 kts | 137° |
| 2025-09-09 13:28 | 37.56365 | 126.79010 | 68 ft | 24 kts | 134° |
| 2025-09-09 13:28 | 37.56044 | 126.79413 | 70 ft | 23 kts | 135° |
| 2025-09-09 13:29 | 37.55925 | 126.79709 | 72 ft | 16 kts | 99° |
| 2025-09-09 13:29 | 37.55875 | 126.79983 | 67 ft | 17 kts | 128° |
| 2025-09-09 13:30 | 37.55799 | 126.80082 | 70 ft | 14 kts | 135° |
| 2025-09-09 13:30 | 37.55695 | 126.80226 | 72 ft | 11 kts | 107° |
| 2025-09-09 13:31 | 37.55754 | 126.80323 | 72 ft | 0 kts | 45° |
| 2025-09-09 13:31 | 37.55760 | 126.80331 | 72 ft | 0 kts | 44° |